Flight Track Log - Related Links

Times and Time Zones

All times are in EDT time to prevent confusion due to time zone crossing. See the EJM318 flight status page for this flight to view local times or setup timezone preferences in your user account.

Time Position Orientation Groundspeed Altitude Reporting Facility
EDT Latitude Longitude Course Direction KTS MPH feet Rate Location/Type
Thu 05:42:41 PM 40.8333 -74.1000 246° West 178 205 1,300  Level New York TRACON
Thu 05:43:41 PM 40.8167 -74.1500 246° West 193 222 1,800 2,100 Climbing New York TRACON
Thu 05:44:41 PM 40.8167 -74.2333 270° West 236 272 5,500 4,050 Climbing New York TRACON
Thu 05:45:41 PM 40.8333 -74.3333 282° West 258 297 9,900 3,650 Climbing New York TRACON
Thu 05:46:41 PM 40.8333 -74.4333 270° West 300 345 12,800 3,526 Climbing New York TRACON
Thu 05:47:18 PM 40.8336 -74.5092 270° West 297 342 15,600 2,625 Climbing New York Center
Thu 05:48:17 PM 40.8264 -74.6103 265° West 344 396 17,000 700 Climbing New York Center
Thu 05:49:18 PM 40.8217 -74.7500 267° West 365 420 17,000 298 Level New York Center
Thu 05:50:18 PM 40.8147 -74.8894 266° West 376 433 17,600 2,212 Climbing New York Center
Thu 05:52:17 PM 40.8036 -75.1408 267° West 370 426 23,600 3,167 Climbing New York Center
Thu 05:53:18 PM 40.7794 -75.2872 258° West 370 426 27,100 2,876 Climbing New York Center
Thu 05:54:18 PM 40.7583 -75.3983 256° West 375 432 29,400 2,672 Climbing New York Center
Thu 05:55:17 PM 40.7114 -75.5347 246° West 375 432 32,400 2,900 Climbing New York Center
Thu 05:56:18 PM 40.6625 -75.6600 243° Southwest 385 443 35,200 2,380 Climbing New York Center
Thu 05:57:18 PM 40.6153 -75.7906 245° Southwest 396 456 37,200 840 Climbing New York Center
Thu 05:59:38 PM 40.4978 -76.0922 243° Southwest 394 453 38,000 267 Climbing Cleveland Center
Thu 06:00:18 PM 40.4650 -76.1750 243° Southwest 402 463 38,000  Level New York Center
Thu 06:01:18 PM 40.4133 -76.3019 242° Southwest 397 457 38,000  Level New York Center
Thu 06:03:18 PM 40.3236 -76.5644 246° West 397 457 38,000  Level New York Center
Thu 06:04:18 PM 40.3167 -76.7028 266° West 386 444 38,000  Level New York Center
Thu 06:05:18 PM 40.3117 -76.8439 267° West 392 451 38,000  Level New York Center
Thu 06:06:52 PM 40.3000 -77.0647 266° West 387 445 38,000  Level Cleveland Center
Thu 06:07:55 PM 40.2911 -77.2131 266° West 388 447 38,000  Level Cleveland Center
Thu 06:08:57 PM 40.2833 -77.3564 266° West 393 452 38,000  Level Cleveland Center
Thu 06:09:59 PM 40.2739 -77.5200 266° West 392 451 38,000  Level Cleveland Center
Thu 06:11:01 PM 40.2636 -77.6650 265° West 396 456 38,000  Level Cleveland Center
Thu 06:12:03 PM 40.2542 -77.8086 265° West 397 457 38,000  Level Cleveland Center
Thu 06:13:05 PM 40.2442 -77.9589 265° West 397 457 38,000  Level Cleveland Center
Thu 06:14:07 PM 40.2344 -78.1022 265° West 397 457 38,000  Level Cleveland Center
Thu 06:15:09 PM 40.2236 -78.2467 264° West 398 458 38,000 -257 Level Cleveland Center
Thu 06:17:14 PM 40.2022 -78.5583 265° West 393 452 37,200 -866 Descending Cleveland Center
Thu 06:18:16 PM 40.1919 -78.7000 265° West 393 452 35,300 -1,839 Descending Cleveland Center
Thu 06:19:18 PM 40.1814 -78.8383 264° West 387 445 33,400 -1,065 Descending Cleveland Center
Thu 06:21:22 PM 40.1606 -79.1267 264° West 399 459 32,000 -452 Descending Cleveland Center
Thu 06:22:24 PM 40.1461 -79.3022 264° West 405 466 32,000  Level Cleveland Center
Thu 06:23:26 PM 40.1367 -79.4306 265° West 405 466 32,000  Level Cleveland Center
Thu 06:24:28 PM 40.1242 -79.5769 264° West 405 466 32,000  Level Cleveland Center
Thu 06:25:30 PM 40.1100 -79.7539 264° West 405 466 32,000  Level Cleveland Center
Thu 06:26:33 PM 40.0975 -79.9014 264° West 405 466 32,000  Level Cleveland Center
Thu 06:27:35 PM 40.0853 -80.0492 264° West 405 466 32,000 -1,065 Level Cleveland Center
Thu 06:29:39 PM 40.0592 -80.3450 264° West 406 467 28,700 -1,710 Descending Cleveland Center
Thu 06:30:41 PM 40.0456 -80.4939 263° West 408 470 26,700 -1,935 Descending Cleveland Center
Thu 06:31:43 PM 40.0328 -80.6400 264° West 407 468 24,700 -1,645 Descending Cleveland Center
Thu 06:32:45 PM 40.0175 -80.8103 263° West 396 456 23,300 -1,403 Descending Cleveland Center
Thu 06:33:47 PM 39.9917 -80.9517 257° West 399 459 21,800 -1,392 Descending Cleveland Center
Thu 06:34:50 PM 39.9644 -81.0886 256° West 393 452 20,400 -1,536 Descending Cleveland Center
Thu 06:35:52 PM 39.9375 -81.2256 256° West 391 450 18,600 -1,935 Descending Cleveland Center
Thu 06:36:54 PM 39.9108 -81.3589 255° West 385 443 16,400 -2,177 Descending Cleveland Center
Thu 06:37:56 PM 39.8883 -81.4992 258° West 360 414 14,100 -2,081 Descending Cleveland Center
Thu 06:38:58 PM 39.8803 -81.6194 265° West 341 392 12,100 -1,745 Descending Cleveland Center
Thu 06:40:17 PM 39.8761 -81.7864 268° West 320 368 10,000 -1,385 Descending Indianapolis Center
Thu 06:40:29 PM 39.8764 -81.8111 271° West 318 366 10,000  Level Indianapolis Center
Thu 06:41:25 PM 39.8731 -81.8969 267° West 322 371 10,000 38 Level Indianapolis Center
Thu 06:43:06 PM 39.8900 -82.0989 276° West 316 364 10,100 -447 Climbing Cleveland Center
Thu 06:44:33 PM 39.9119 -82.2439 281° West 248 285 8,600 -1,224 Descending Indianapolis Center
Thu 06:45:33 PM 39.9286 -82.3164 287° West 236 272 7,100 -1,667 Descending Indianapolis Center
Thu 06:47:15 PM 39.9581 -82.4406 287° West 222 255 4,100 -1,134 Descending Cleveland Center
Thu 06:48:17 PM 39.9769 -82.5442 283° West 238 274 4,000 -48 Descending Cleveland Center
Thu 06:49:19 PM 39.9778 -82.6181 271° West 221 254 4,000 -48 Level Cleveland Center
Thu 06:50:21 PM 39.9806 -82.6792 273° West 193 222 3,900 -581 Descending Cleveland Center
Thu 06:51:23 PM 39.9836 -82.7372 274° West 174 200 2,800 -919 Descending Cleveland Center
Thu 06:52:25 PM 39.9875 -82.7917 275° West 162 186 2,000 -774 Descending Cleveland Center
Thu 06:53:27 PM 39.9906 -82.8506 274° West 146 168 1,200 -484 Descending Cleveland Center
Thu 06:54:29 PM 39.9933 -82.9000 274° West 144 166 1,000 -194 Descending Cleveland Center

Login

Don't have an account? Register now (free) for customized features, flight alerts, and more!